Time;durP1;ratioP1;P1;durP2;ratioP2;P2;SDS_P1;SDS_P2;PMS_P1;PMS_P2;Temp;Humidity;BMP_temperature;BMP_pressure;BME280_temperature;BME280_humidity;BME280_pressure;Samples;Min_cycle;Max_cycle;Signal;HPM_P1;HPM_P2
2021/11/02 00:01:57;;;;;;;13.10;9.50;;;28.80;90.00;;;;;;5165765;27;20026;-48
2021/11/02 00:04:23;;;;;;;11.80;8.15;;;28.80;89.80;;;;;;5165993;27;20053;-49
2021/11/02 00:06:50;;;;;;;12.30;7.70;;;28.80;89.70;;;;;;5165786;27;20145;-47
2021/11/02 00:09:21;;;;;;;12.68;7.25;;;28.80;89.80;;;;;;5165957;27;20030;-44
2021/11/02 00:11:48;;;;;;;14.43;8.70;;;28.80;89.80;;;;;;5165555;27;20019;-44
2021/11/02 00:14:15;;;;;;;12.75;7.32;;;28.80;89.90;;;;;;5147341;27;20030;-48
2021/11/02 00:16:44;;;;;;;10.55;8.00;;;28.80;90.00;;;;;;5165621;27;20148;-45
2021/11/02 00:19:11;;;;;;;11.27;7.18;;;28.80;89.90;;;;;;5165342;27;20326;-45
2021/11/02 00:21:43;;;;;;;8.90;6.68;;;28.80;90.00;;;;;;5165288;27;20018;-48
2021/11/02 00:24:14;;;;;;;8.98;6.53;;;28.80;90.00;;;;;;5165319;27;20023;-47
2021/11/02 00:26:41;;;;;;;11.03;5.93;;;28.80;90.00;;;;;;5165023;27;20084;-53
2021/11/02 00:29:09;;;;;;;11.73;6.68;;;28.80;90.10;;;;;;5165436;27;20268;-54
2021/11/02 00:31:36;;;;;;;13.32;7.25;;;28.70;90.00;;;;;;5165383;27;20015;-52
2021/11/02 00:34:03;;;;;;;16.25;7.50;;;28.70;90.00;;;;;;5165467;27;20042;-50
2021/11/02 00:36:29;;;;;;;9.10;6.68;;;28.70;90.10;;;;;;5165360;27;20038;-49
2021/11/02 00:38:56;;;;;;;12.02;6.45;;;28.70;90.10;;;;;;5165460;27;20033;-50
2021/11/02 00:41:23;;;;;;;10.15;6.43;;;28.70;90.10;;;;;;5165422;27;20023;-51
2021/11/02 00:43:51;;;;;;;12.65;6.53;;;28.70;90.00;;;;;;5165875;27;20053;-57
2021/11/02 00:46:26;;;;;;;10.75;6.60;;;28.70;90.00;;;;;;5165776;27;20037;-54
2021/11/02 00:48:53;;;;;;;9.77;6.18;;;28.70;90.00;;;;;;5165752;27;20019;-48
2021/11/02 00:51:19;;;;;;;16.23;5.95;;;28.70;90.00;;;;;;5165325;27;20082;-46
2021/11/02 00:53:46;;;;;;;9.77;5.88;;;28.70;90.10;;;;;;5146823;27;20023;-47
2021/11/02 00:56:13;;;;;;;12.68;6.70;;;28.70;90.10;;;;;;5165299;27;20022;-52
2021/11/02 00:58:39;;;;;;;9.70;5.50;;;28.70;90.10;;;;;;5165565;27;20022;-48
2021/11/02 01:01:06;;;;;;;9.70;5.57;;;28.70;90.10;;;;;;5165304;27;20034;-48
2021/11/02 01:03:34;;;;;;;8.07;5.15;;;28.70;90.10;;;;;;5165482;27;20019;-50
2021/11/02 01:06:01;;;;;;;9.05;5.63;;;28.70;90.20;;;;;;5165451;27;20034;-51
2021/11/02 01:08:28;;;;;;;10.30;5.53;;;28.70;90.20;;;;;;5165277;27;20011;-48
2021/11/02 01:10:55;;;;;;;9.40;5.43;;;28.70;90.20;;;;;;5165542;27;20029;-46
2021/11/02 01:13:22;;;;;;;11.63;6.47;;;28.70;90.20;;;;;;5165186;27;20215;-48
2021/11/02 01:15:49;;;;;;;9.00;6.65;;;28.70;90.30;;;;;;5168891;27;20029;-50
2021/11/02 01:18:15;;;;;;;11.57;6.20;;;28.70;90.30;;;;;;5150691;27;20034;-53
2021/11/02 01:20:43;;;;;;;9.70;5.90;;;28.60;90.40;;;;;;5169661;27;20023;-50
2021/11/02 01:23:10;;;;;;;11.25;6.30;;;28.70;90.40;;;;;;5169273;27;20029;-47
2021/11/02 01:25:38;;;;;;;10.80;5.50;;;28.60;90.30;;;;;;5170294;27;20022;-46
2021/11/02 01:28:06;;;;;;;10.70;6.70;;;28.60;90.40;;;;;;5169001;27;20365;-48
2021/11/02 01:30:32;;;;;;;8.43;6.22;;;28.60;90.40;;;;;;5169251;27;20018;-49
2021/11/02 01:33:00;;;;;;;10.10;5.78;;;28.60;90.40;;;;;;5168923;27;20062;-48
2021/11/02 01:35:28;;;;;;;10.45;5.80;;;28.60;90.50;;;;;;5169427;27;20041;-47
2021/11/02 01:37:55;;;;;;;8.80;5.40;;;28.60;90.50;;;;;;5150330;27;20030;-50
2021/11/02 01:40:22;;;;;;;11.07;5.50;;;28.60;90.50;;;;;;5169062;27;20060;-47
2021/11/02 01:43:11;;;;;;;15.13;5.75;;;28.60;90.50;;;;;;5168899;27;20043;-51
2021/11/02 01:45:38;;;;;;;11.30;5.10;;;28.60;90.60;;;;;;5168007;27;20022;-47
2021/11/02 01:48:06;;;;;;;8.10;5.20;;;28.60;90.60;;;;;;5168587;27;20048;-54
2021/11/02 01:50:34;;;;;;;10.07;4.78;;;28.60;90.70;;;;;;5168465;27;20322;-51
2021/11/02 01:53:01;;;;;;;9.02;4.95;;;28.60;90.60;;;;;;5168581;27;20045;-49
2021/11/02 01:55:27;;;;;;;9.48;5.13;;;28.60;90.60;;;;;;5150027;27;20023;-53
2021/11/02 01:57:54;;;;;;;8.60;5.25;;;28.60;90.60;;;;;;5168003;27;20091;-47
2021/11/02 02:00:27;;;;;;;7.55;4.78;;;28.50;90.70;;;;;;5168841;27;20073;-52
2021/11/02 02:03:12;;;;;;;8.85;4.60;;;28.60;90.70;;;;;;5168225;27;20019;-52
2021/11/02 02:06:18;;;;;;;12.30;4.22;;;28.60;90.70;;;;;;5168615;27;20019;-48
2021/11/02 02:09:11;;;;;;;15.18;4.30;;;28.50;90.70;;;;;;5167574;27;20046;-47
2021/11/02 02:12:01;;;;;;;12.65;4.50;;;28.50;90.70;;;;;;5167873;27;20207;-47
2021/11/02 02:14:46;;;;;;;13.25;4.20;;;28.60;90.70;;;;;;5168607;27;20187;-49
2021/11/02 02:17:19;;;;;;;11.25;4.68;;;28.50;90.70;;;;;;5167872;27;20067;-50
2021/11/02 02:19:49;;;;;;;16.10;4.88;;;28.60;90.80;;;;;;5168331;27;20015;-48
2021/11/02 02:22:34;;;;;;;17.55;4.70;;;28.50;90.70;;;;;;5167830;27;20025;-47
2021/11/02 02:25:07;;;;;;;14.18;4.28;;;28.50;90.70;;;;;;5148592;27;20023;-48
2021/11/02 02:28:04;;;;;;;14.50;5.05;;;28.50;90.80;;;;;;5167102;27;20011;-49
2021/11/02 02:30:33;;;;;;;13.05;3.63;;;28.50;90.80;;;;;;5168161;27;20042;-51
2021/11/02 02:33:02;;;;;;;14.65;3.78;;;28.50;90.80;;;;;;5167781;27;20185;-48
2021/11/02 02:35:30;;;;;;;9.48;3.78;;;28.50;90.70;;;;;;5167288;27;20023;-51
2021/11/02 02:37:59;;;;;;;11.45;2.97;;;28.50;90.70;;;;;;5168246;27;20064;-49
2021/11/02 02:40:26;;;;;;;5.45;2.92;;;28.50;90.70;;;;;;5168416;27;20023;-48
2021/11/02 02:42:53;;;;;;;9.95;2.90;;;28.50;90.60;;;;;;5167378;27;20035;-48
2021/11/02 02:45:20;;;;;;;5.53;2.60;;;28.50;90.60;;;;;;5167205;27;20038;-53
2021/11/02 02:47:49;;;;;;;7.68;2.72;;;28.50;90.60;;;;;;5148851;27;20026;-48
2021/11/02 02:50:18;;;;;;;8.00;2.75;;;28.50;90.70;;;;;;5167319;27;20079;-51
2021/11/02 02:52:46;;;;;;;8.55;2.80;;;28.50;90.70;;;;;;5167356;27;20029;-52
2021/11/02 02:55:15;;;;;;;6.82;2.65;;;28.40;90.60;;;;;;5168130;27;20033;-52
2021/11/02 02:57:44;;;;;;;10.30;2.95;;;28.50;90.70;;;;;;5168123;27;20368;-50
2021/11/02 03:00:12;;;;;;;9.13;2.97;;;28.40;90.70;;;;;;5167091;27;20023;-56
2021/11/02 03:02:41;;;;;;;7.10;3.05;;;28.40;90.70;;;;;;5167566;27;20039;-48
2021/11/02 03:05:10;;;;;;;6.40;2.70;;;28.40;90.70;;;;;;5167233;27;20022;-50
2021/11/02 03:07:38;;;;;;;6.25;2.53;;;28.40;90.70;;;;;;5166867;27;20075;-50
2021/11/02 03:10:07;;;;;;;8.25;2.50;;;28.40;90.70;;;;;;5166748;27;20228;-49
2021/11/02 03:12:37;;;;;;;8.20;3.17;;;28.40;90.70;;;;;;5148132;27;20029;-47
2021/11/02 04:38:19;;;;;;;4.93;2.72;;;28.20;90.90;;;;;;5165743;27;20030;-49
2021/11/02 04:45:52;;;;;;;4.78;2.92;;;28.10;91.10;;;;;;5165403;27;20021;-48
2021/11/02 05:07:37;;;;;;;7.53;3.30;;;28.00;91.40;;;;;;5169385;27;20026;-52
2021/11/02 05:10:29;;;;;;;7.05;3.03;;;28.10;91.40;;;;;;5168511;27;20015;-50
2021/11/02 06:00:11;;;;;;;6.68;4.15;;;27.90;91.10;;;;;;5168291;27;20036;-48
2021/11/02 06:05:28;;;;;;;8.65;4.72;;;27.80;91.00;;;;;;5168408;27;20074;-48
2021/11/02 06:30:36;;;;;;;6.20;4.57;;;27.80;91.20;;;;;;5167918;27;20059;-49
2021/11/02 06:33:13;;;;;;;6.43;4.43;;;27.80;91.20;;;;;;5167978;27;20041;-48
2021/11/02 06:42:01;;;;;;;5.70;4.10;;;27.80;91.10;;;;;;5168118;27;20018;-48
2021/11/02 06:44:23;;;;;;;6.72;3.92;;;27.80;91.20;;;;;;5167568;27;20050;-52
2021/11/02 07:22:59;;;;;;;8.07;4.65;;;27.70;91.30;;;;;;5166668;27;20025;-49
2021/11/02 08:45:47;;;;;;;5.70;3.42;;;27.40;91.60;;;;;;5165439;27;20030;-47
2021/11/02 08:48:02;;;;;;;4.82;3.17;;;27.40;91.60;;;;;;5165177;27;20031;-46
2021/11/02 08:50:39;;;;;;;4.72;3.30;;;27.40;91.60;;;;;;5165148;27;20023;-45
2021/11/02 08:53:12;;;;;;;4.57;3.45;;;27.40;91.60;;;;;;5165380;27;20048;-51
2021/11/02 08:55:41;;;;;;;7.10;3.38;;;27.40;91.60;;;;;;5165416;27;20060;-54
2021/11/02 08:58:08;;;;;;;5.20;3.45;;;27.40;91.60;;;;;;5165058;27;20017;-49
2021/11/02 09:00:36;;;;;;;6.68;3.20;;;27.40;91.50;;;;;;5165182;27;20015;-51
2021/11/02 09:03:13;;;;;;;5.28;3.60;;;27.30;91.50;;;;;;5165312;27;20015;-49
2021/11/02 09:05:42;;;;;;;5.25;3.33;;;27.40;91.50;;;;;;5165508;27;20015;-50
2021/11/02 09:08:12;;;;;;;5.90;3.15;;;27.40;91.50;;;;;;5165570;27;20046;-49
2021/11/02 09:10:42;;;;;;;6.47;3.15;;;27.40;91.50;;;;;;5165340;27;20043;-50
2021/11/02 09:13:10;;;;;;;4.30;2.72;;;27.30;91.50;;;;;;5165171;27;20022;-47
2021/11/02 09:15:38;;;;;;;3.80;2.90;;;27.30;91.50;;;;;;5165073;27;20094;-47
2021/11/02 09:18:09;;;;;;;7.15;3.03;;;27.30;91.50;;;;;;5164773;27;20019;-48
2021/11/02 09:20:37;;;;;;;4.65;3.10;;;27.30;91.50;;;;;;5165226;27;20022;-50
2021/11/02 09:23:05;;;;;;;14.63;3.20;;;27.30;91.50;;;;;;5165184;27;20030;-47
2021/11/02 09:25:32;;;;;;;4.88;2.70;;;27.30;91.50;;;;;;5164967;27;20011;-50
2021/11/02 09:27:59;;;;;;;4.22;2.75;;;27.30;91.50;;;;;;5146579;27;20019;-53
2021/11/02 09:30:26;;;;;;;4.15;2.53;;;27.30;91.50;;;;;;5164666;27;20327;-50
2021/11/02 09:32:55;;;;;;;5.30;2.78;;;27.30;91.50;;;;;;5164953;27;20022;-51
2021/11/02 09:35:28;;;;;;;4.32;2.65;;;27.30;91.50;;;;;;5166342;27;20010;-51
2021/11/02 09:38:32;;;;;;;6.50;2.70;;;27.30;91.50;;;;;;5168377;27;20014;-52
2021/11/02 09:41:11;;;;;;;4.97;3.03;;;27.30;91.60;;;;;;5168840;27;20093;-49
2021/11/02 09:44:27;;;;;;;3.65;2.80;;;27.30;91.60;;;;;;5164691;27;20290;-52
2021/11/02 09:47:18;;;;;;;3.40;2.90;;;27.30;91.50;;;;;;5167577;27;20054;-52
2021/11/02 09:50:12;;;;;;;8.48;3.15;;;27.30;91.60;;;;;;5168774;27;20315;-49
2021/11/02 09:52:39;;;;;;;8.70;3.35;;;27.20;91.60;;;;;;5168813;27;20189;-55
2021/11/02 09:55:24;;;;;;;8.35;2.80;;;27.20;91.60;;;;;;5168620;27;20077;-50
2021/11/02 09:58:02;;;;;;;9.90;3.55;;;27.20;91.60;;;;;;5168098;27;20038;-47
2021/11/02 10:00:41;;;;;;;7.70;3.22;;;27.20;91.60;;;;;;5168269;27;20051;-54
2021/11/02 10:03:37;;;;;;;7.95;3.22;;;27.20;91.60;;;;;;5167363;27;20085;-48
2021/11/02 10:06:27;;;;;;;4.70;3.22;;;27.20;91.60;;;;;;5167472;27;20314;-49
2021/11/02 10:09:11;;;;;;;7.50;2.85;;;27.20;91.60;;;;;;5166362;27;20034;-51
2021/11/02 10:12:05;;;;;;;7.20;2.97;;;27.10;91.60;;;;;;5167832;27;20054;-49
2021/11/02 10:15:10;;;;;;;6.00;2.78;;;27.10;91.60;;;;;;5168031;27;20038;-46
2021/11/02 10:18:03;;;;;;;6.50;3.10;;;27.10;91.60;;;;;;5168132;27;20131;-46
2021/11/02 10:20:38;;;;;;;5.10;3.10;;;27.10;91.60;;;;;;5167595;27;20356;-48
2021/11/02 10:23:46;;;;;;;6.47;3.10;;;27.20;91.60;;;;;;5167712;27;20023;-53
2021/11/02 10:26:46;;;;;;;5.75;3.25;;;27.10;91.60;;;;;;5168014;27;20054;-54
2021/11/02 10:29:25;;;;;;;5.30;2.72;;;27.10;91.60;;;;;;5167903;27;20078;-48
2021/11/02 10:31:58;;;;;;;9.02;2.70;;;27.10;91.60;;;;;;5168223;27;20050;-48
2021/11/02 10:34:34;;;;;;;6.28;2.85;;;27.10;91.60;;;;;;5167583;27;20045;-51
2021/11/02 10:37:20;;;;;;;9.80;3.13;;;27.10;91.60;;;;;;5167711;27;20070;-52
2021/11/02 10:40:06;;;;;;;12.55;3.15;;;27.10;91.60;;;;;;5167500;27;20019;-50
2021/11/02 10:42:56;;;;;;;7.38;3.53;;;27.10;91.60;;;;;;5167517;27;20057;-49
2021/11/02 10:45:26;;;;;;;9.70;3.15;;;27.10;91.60;;;;;;5167171;27;20011;-46
2021/11/02 10:48:04;;;;;;;10.88;3.20;;;27.10;91.60;;;;;;5165529;27;20071;-44
2021/11/02 10:50:37;;;;;;;9.35;3.20;;;27.10;91.70;;;;;;5167124;27;20010;-46
2021/11/02 10:53:08;;;;;;;7.45;2.90;;;27.10;91.70;;;;;;5167216;27;20026;-49
2021/11/02 10:56:03;;;;;;;7.35;2.78;;;27.00;91.60;;;;;;5167329;27;20315;-49
2021/11/02 10:58:42;;;;;;;8.02;3.03;;;27.10;91.70;;;;;;5167020;27;20318;-49
2021/11/02 11:01:11;;;;;;;7.60;2.67;;;27.10;91.70;;;;;;5167027;27;20026;-46
2021/11/02 11:03:41;;;;;;;6.95;3.08;;;27.00;91.70;;;;;;5167078;27;20011;-48
2021/11/02 11:06:10;;;;;;;7.97;2.97;;;27.00;91.70;;;;;;5148445;27;20027;-47
2021/11/02 11:08:39;;;;;;;8.18;3.08;;;27.00;91.70;;;;;;5167017;27;20059;-47
2021/11/02 11:11:11;;;;;;;10.40;3.50;;;27.00;91.70;;;;;;5166877;27;20027;-49
2021/11/02 11:13:46;;;;;;;8.52;3.47;;;27.00;91.70;;;;;;5166657;27;20335;-47
2021/11/02 11:16:18;;;;;;;11.50;3.30;;;27.00;91.70;;;;;;5167028;27;20038;-52
2021/11/02 11:18:53;;;;;;;8.55;3.50;;;27.00;91.70;;;;;;5166760;27;20018;-46
2021/11/02 11:21:27;;;;;;;6.68;3.13;;;27.10;91.70;;;;;;5166854;27;20323;-49
2021/11/02 11:24:13;;;;;;;8.05;3.22;;;27.10;91.70;;;;;;5148352;27;20018;-48
2021/11/02 11:27:04;;;;;;;7.13;3.60;;;27.10;91.70;;;;;;5167222;27;20307;-50
2021/11/02 11:29:33;;;;;;;7.07;3.10;;;27.20;91.60;;;;;;5166403;27;20023;-48
2021/11/02 11:32:00;;;;;;;9.20;3.05;;;27.30;91.50;;;;;;5166744;27;20199;-49
2021/11/02 11:34:36;;;;;;;9.13;2.80;;;27.30;91.40;;;;;;5166276;27;20034;-48
2021/11/02 11:37:06;;;;;;;10.82;2.60;;;27.30;91.40;;;;;;5166529;27;20318;-50
2021/11/02 11:39:33;;;;;;;8.75;2.83;;;27.30;91.50;;;;;;5166305;27;20018;-46
2021/11/02 11:42:01;;;;;;;7.88;2.88;;;27.30;91.60;;;;;;5166626;27;20078;-54
2021/11/02 11:44:30;;;;;;;14.75;3.00;;;27.30;91.60;;;;;;5166082;27;20055;-47
2021/11/02 11:47:09;;;;;;;9.80;3.15;;;27.30;91.70;;;;;;5166393;27;20022;-51
2021/11/02 11:49:45;;;;;;;9.05;3.28;;;27.30;91.70;;;;;;5165912;27;20043;-48
2021/11/02 11:52:12;;;;;;;10.48;3.38;;;27.30;91.70;;;;;;5166623;27;20026;-50
2021/11/02 11:54:53;;;;;;;9.23;3.47;;;27.30;91.70;;;;;;5166004;27;20018;-48
2021/11/02 11:57:35;;;;;;;8.10;3.30;;;27.30;91.80;;;;;;5166059;27;20089;-45
2021/11/02 12:00:07;;;;;;;7.40;3.13;;;27.30;91.80;;;;;;5165815;27;20187;-45
2021/11/02 12:02:57;;;;;;;8.63;3.08;;;27.30;91.80;;;;;;5166489;27;20063;-50
2021/11/02 12:05:26;;;;;;;6.43;2.80;;;27.30;91.80;;;;;;5165719;27;20119;-56
2021/11/02 12:08:07;;;;;;;8.18;2.60;;;27.30;91.80;;;;;;5147878;27;20053;-46
2021/11/02 12:10:35;;;;;;;5.45;2.80;;;27.40;91.80;;;;;;5165423;27;20015;-57
2021/11/02 12:13:07;;;;;;;8.43;2.65;;;27.40;91.70;;;;;;5165384;27;20081;-45
2021/11/02 12:15:49;;;;;;;6.90;2.50;;;27.40;91.70;;;;;;5165411;27;20022;-46
2021/11/02 12:18:18;;;;;;;4.97;3.00;;;27.40;91.80;;;;;;5146743;27;20045;-51
2021/11/02 12:20:45;;;;;;;7.20;2.47;;;27.40;91.70;;;;;;5165519;27;20019;-52
2021/11/02 12:23:27;;;;;;;6.05;2.38;;;27.50;91.70;;;;;;5165237;27;20018;-49
2021/11/02 12:25:58;;;;;;;8.80;2.25;;;27.50;91.70;;;;;;5147383;27;20086;-47
2021/11/02 12:28:29;;;;;;;7.25;2.67;;;27.50;91.80;;;;;;5165753;27;20027;-49
2021/11/02 12:31:05;;;;;;;7.63;2.50;;;27.50;91.80;;;;;;5165580;27;20026;-48
2021/11/02 12:33:33;;;;;;;5.90;2.20;;;27.60;91.80;;;;;;5165437;27;20015;-48
2021/11/02 12:36:03;;;;;;;5.20;2.15;;;27.60;91.70;;;;;;5165492;27;20229;-48
2021/11/02 12:38:40;;;;;;;6.32;2.25;;;27.60;91.70;;;;;;5165368;27;20019;-51
2021/11/02 12:41:20;;;;;;;8.95;2.60;;;27.60;91.70;;;;;;5165477;27;20042;-46
2021/11/02 12:44:01;;;;;;;6.15;2.60;;;27.60;91.70;;;;;;5165356;27;20080;-48
2021/11/02 12:46:31;;;;;;;7.82;1.98;;;27.60;91.70;;;;;;5165423;27;20038;-45
2021/11/02 12:49:03;;;;;;;7.90;2.30;;;27.70;91.80;;;;;;5165253;27;20021;-46
2021/11/02 12:51:36;;;;;;;6.30;2.47;;;27.70;91.70;;;;;;5165461;27;20244;-49
2021/11/02 12:54:06;;;;;;;4.32;2.40;;;27.70;91.70;;;;;;5165468;27;20093;-55
2021/11/02 12:56:35;;;;;;;6.18;2.30;;;27.70;91.70;;;;;;5165372;27;20113;-56
2021/11/02 12:59:16;;;;;;;8.13;2.10;;;27.70;91.60;;;;;;5164987;27;20082;-48
2021/11/02 13:01:43;;;;;;;7.75;2.38;;;27.70;91.60;;;;;;5165632;27;20028;-48
2021/11/02 13:04:11;;;;;;;7.93;2.03;;;27.80;91.60;;;;;;5164964;27;20033;-46
2021/11/02 13:06:58;;;;;;;6.55;2.20;;;27.80;91.60;;;;;;5165249;27;20091;-46
2021/11/02 13:09:34;;;;;;;6.50;2.13;;;27.80;91.60;;;;;;5164919;27;20025;-47
2021/11/02 13:12:06;;;;;;;6.22;2.15;;;27.80;91.60;;;;;;5169347;27;20184;-50
2021/11/02 13:14:49;;;;;;;5.97;2.05;;;27.80;91.50;;;;;;5168955;27;20033;-50
2021/11/02 13:17:23;;;;;;;5.30;2.10;;;27.80;91.50;;;;;;5168946;27;20030;-51
2021/11/02 13:19:54;;;;;;;6.63;2.03;;;27.80;91.50;;;;;;5168780;27;20207;-49
2021/11/02 13:22:25;;;;;;;3.08;1.65;;;27.80;91.50;;;;;;5169529;27;20023;-47
2021/11/02 13:25:02;;;;;;;4.93;1.95;;;27.80;91.50;;;;;;5169067;27;20014;-44
2021/11/02 13:27:46;;;;;;;4.32;1.85;;;27.90;91.50;;;;;;5169149;27;20050;-45
2021/11/02 13:30:31;;;;;;;5.05;2.22;;;27.90;91.50;;;;;;5168915;27;20094;-45
2021/11/02 13:33:06;;;;;;;9.75;2.20;;;27.90;91.50;;;;;;5168585;27;20030;-46
2021/11/02 13:35:42;;;;;;;4.72;1.95;;;27.90;91.50;;;;;;5168733;27;20078;-50
2021/11/02 13:38:23;;;;;;;3.88;1.92;;;27.90;91.50;;;;;;5169028;27;20578;-45
2021/11/02 13:40:53;;;;;;;3.72;1.80;;;27.90;91.40;;;;;;5169042;27;20030;-46
2021/11/02 13:43:31;;;;;;;5.25;2.20;;;28.00;91.40;;;;;;5168658;27;20170;-46
2021/11/02 13:45:59;;;;;;;4.40;1.90;;;28.00;91.40;;;;;;5168622;27;20018;-47
2021/11/02 13:48:27;;;;;;;3.72;1.80;;;28.00;91.40;;;;;;5168884;27;20023;-51
2021/11/02 13:50:55;;;;;;;3.83;1.75;;;28.00;91.40;;;;;;5168882;27;20027;-54
2021/11/02 13:53:23;;;;;;;5.38;1.67;;;28.00;91.40;;;;;;5168658;27;20010;-47
2021/11/02 13:55:51;;;;;;;6.93;2.45;;;28.00;91.30;;;;;;5168268;27;20026;-52
2021/11/02 13:58:18;;;;;;;5.43;2.13;;;28.10;91.30;;;;;;5168350;27;20038;-47
2021/11/02 14:00:46;;;;;;;5.82;2.13;;;28.00;91.20;;;;;;5168450;27;20061;-50
2021/11/02 14:03:17;;;;;;;3.90;1.98;;;28.10;91.20;;;;;;5168267;27;20063;-45
2021/11/02 14:05:46;;;;;;;7.27;2.07;;;28.10;91.20;;;;;;5168403;27;20025;-48
2021/11/02 14:08:19;;;;;;;6.20;2.28;;;28.10;91.10;;;;;;5168230;27;20014;-47
2021/11/02 14:10:57;;;;;;;5.38;2.15;;;28.10;91.10;;;;;;5168189;27;20385;-47
2021/11/02 14:13:43;;;;;;;5.40;2.10;;;28.10;91.10;;;;;;5168313;27;20022;-52
2021/11/02 14:16:14;;;;;;;8.23;2.30;;;28.20;91.10;;;;;;5168508;27;20210;-55
2021/11/02 14:18:42;;;;;;;8.82;2.17;;;28.20;91.00;;;;;;5168306;27;20021;-53
2021/11/02 14:21:10;;;;;;;4.72;2.22;;;28.10;91.00;;;;;;5167842;27;20237;-48
2021/11/02 14:23:43;;;;;;;3.78;1.75;;;28.20;91.00;;;;;;5167888;27;20052;-48
2021/11/02 14:26:24;;;;;;;4.10;2.03;;;28.20;91.00;;;;;;5168155;27;20031;-45
2021/11/02 14:28:58;;;;;;;3.78;2.00;;;28.20;90.90;;;;;;5168108;27;20021;-51
2021/11/02 14:31:40;;;;;;;2.83;1.92;;;28.20;90.90;;;;;;5168041;27;20101;-51
2021/11/02 14:34:26;;;;;;;4.82;2.17;;;28.20;90.90;;;;;;5167897;27;20021;-47
2021/11/02 14:37:10;;;;;;;5.18;2.00;;;28.20;90.80;;;;;;5167843;27;20022;-52
2021/11/02 14:39:59;;;;;;;3.72;1.90;;;28.30;90.80;;;;;;5167699;27;20022;-46
2021/11/02 14:42:46;;;;;;;6.80;2.13;;;28.30;90.80;;;;;;5116625;27;20068;-45
2021/11/02 14:45:15;;;;;;;5.82;2.28;;;28.30;90.80;;;;;;5167672;27;20040;-46
2021/11/02 14:47:42;;;;;;;5.22;1.88;;;28.30;90.80;;;;;;5168261;27;20023;-45
2021/11/02 14:50:37;;;;;;;3.40;2.35;;;28.30;90.80;;;;;;5167604;27;20029;-51
2021/11/02 14:53:23;;;;;;;6.20;2.40;;;28.30;90.70;;;;;;5167598;27;20107;-44
2021/11/02 14:56:03;;;;;;;5.22;2.10;;;28.40;90.80;;;;;;5167370;27;20231;-48
2021/11/02 14:58:42;;;;;;;3.28;2.05;;;28.40;90.80;;;;;;5167467;27;20018;-44
2021/11/02 15:01:11;;;;;;;5.03;2.63;;;28.40;90.80;;;;;;5167480;27;20019;-52
2021/11/02 15:03:40;;;;;;;2.83;2.22;;;28.40;90.70;;;;;;5167338;27;20011;-51
2021/11/02 15:06:09;;;;;;;8.25;2.53;;;28.40;90.70;;;;;;5167424;27;20050;-46
2021/11/02 15:08:40;;;;;;;6.43;2.47;;;28.40;90.70;;;;;;5167460;27;20030;-49
2021/11/02 15:11:15;;;;;;;3.25;2.08;;;28.40;90.70;;;;;;5167286;27;20114;-51
2021/11/02 15:13:57;;;;;;;7.28;2.30;;;28.40;90.70;;;;;;5166927;27;20015;-46
2021/11/02 15:16:25;;;;;;;3.58;2.10;;;28.50;90.70;;;;;;5167146;27;20041;-52
2021/11/02 15:18:59;;;;;;;2.45;1.90;;;28.50;90.60;;;;;;5166953;27;20011;-49
2021/11/02 15:21:51;;;;;;;6.45;2.47;;;28.50;90.60;;;;;;5167133;27;20026;-45
2021/11/02 15:24:26;;;;;;;5.25;2.03;;;28.50;90.60;;;;;;5166525;27;20025;-49
2021/11/02 15:27:05;;;;;;;2.40;2.00;;;28.50;90.50;;;;;;5167141;27;20030;-49
2021/11/02 15:29:36;;;;;;;4.63;2.00;;;28.50;90.50;;;;;;5166573;27;20015;-48
2021/11/02 15:32:06;;;;;;;3.03;2.03;;;28.60;90.50;;;;;;5166677;27;20058;-57
2021/11/02 15:34:42;;;;;;;3.40;1.98;;;28.60;90.40;;;;;;5166216;27;20029;-52
2021/11/02 15:37:12;;;;;;;3.20;2.10;;;28.60;90.30;;;;;;5167018;27;20045;-51
2021/11/02 15:39:40;;;;;;;5.90;2.10;;;28.60;90.30;;;;;;5166566;27;20015;-49
2021/11/02 15:42:22;;;;;;;3.28;1.85;;;28.70;90.30;;;;;;5166609;27;20029;-52
2021/11/02 15:44:57;;;;;;;4.38;1.95;;;28.70;90.30;;;;;;5165926;27;20037;-51
2021/11/02 15:47:28;;;;;;;2.67;1.90;;;28.70;90.20;;;;;;5166328;27;20354;-48
2021/11/02 15:50:07;;;;;;;3.80;1.75;;;28.70;90.10;;;;;;5166221;27;20018;-46
2021/11/02 15:52:36;;;;;;;4.60;2.13;;;28.70;89.80;;;;;;5166283;27;20022;-57
2021/11/02 15:55:18;;;;;;;3.60;1.70;;;28.80;90.00;;;;;;5165938;27;20030;-49
2021/11/02 15:57:47;;;;;;;4.75;1.80;;;28.80;89.60;;;;;;5166499;27;20298;-52
2021/11/02 16:00:16;;;;;;;2.97;1.80;;;28.80;89.50;;;;;;5166049;27;20038;-47
2021/11/02 16:02:46;;;;;;;4.07;2.00;;;28.80;89.40;;;;;;5166510;27;20064;-46
2021/11/02 16:05:17;;;;;;;3.45;2.17;;;28.80;89.00;;;;;;5165856;27;20019;-49
2021/11/02 16:07:44;;;;;;;3.33;1.80;;;28.90;89.20;;;;;;5166467;27;20262;-50
2021/11/02 16:10:12;;;;;;;2.30;1.75;;;28.90;88.90;;;;;;5166017;27;20030;-46
2021/11/02 16:12:41;;;;;;;1.83;1.63;;;28.90;88.60;;;;;;5166128;27;20199;-47
2021/11/02 16:15:13;;;;;;;2.50;2.05;;;28.90;88.60;;;;;;5165861;27;20068;-48
2021/11/02 16:17:43;;;;;;;4.00;1.60;;;28.90;88.50;;;;;;5166166;27;20022;-46
2021/11/02 16:20:17;;;;;;;2.47;1.70;;;28.90;88.40;;;;;;5165782;27;20322;-49
2021/11/02 16:22:47;;;;;;;3.10;2.08;;;28.90;88.20;;;;;;5166329;27;20041;-46
2021/11/02 16:25:14;;;;;;;3.92;1.90;;;29.00;88.00;;;;;;5165597;27;20011;-50
2021/11/02 16:27:51;;;;;;;3.13;1.70;;;28.90;87.60;;;;;;5166303;27;20054;-50
2021/11/02 16:30:21;;;;;;;5.10;1.90;;;29.00;86.40;;;;;;5164971;27;20045;-47
2021/11/02 16:32:53;;;;;;;3.55;1.67;;;29.00;86.20;;;;;;5165324;27;20064;-48
2021/11/02 16:35:44;;;;;;;4.43;1.55;;;29.00;85.50;;;;;;5165715;27;20271;-46
2021/11/02 16:38:37;;;;;;;3.50;1.70;;;29.00;84.90;;;;;;5165556;27;20076;-45
2021/11/02 16:41:20;;;;;;;4.72;1.80;;;29.00;84.50;;;;;;5161594;27;20031;-51
2021/11/02 16:43:50;;;;;;;6.32;1.90;;;29.00;84.20;;;;;;5165171;27;20076;-48
2021/11/02 16:46:26;;;;;;;7.45;2.10;;;29.10;83.50;;;;;;5168726;27;20278;-48
2021/11/02 16:49:04;;;;;;;10.95;2.05;;;29.10;83.60;;;;;;5169511;27;20206;-45
2021/11/02 16:51:52;;;;;;;7.15;1.92;;;29.10;83.40;;;;;;5169559;27;20034;-51
2021/11/02 16:54:45;;;;;;;5.55;1.75;;;29.10;83.80;;;;;;5169629;27;20090;-52
2021/11/02 16:57:19;;;;;;;4.47;1.80;;;29.10;83.90;;;;;;5165423;27;20046;-55
2021/11/02 16:59:53;;;;;;;9.35;1.83;;;29.20;83.40;;;;;;5169080;27;20011;-51
2021/11/02 17:02:24;;;;;;;3.80;1.70;;;29.10;83.20;;;;;;5169981;27;20030;-49
2021/11/02 17:05:14;;;;;;;6.45;1.83;;;29.20;83.40;;;;;;5169679;27;20018;-48
2021/11/02 17:08:04;;;;;;;3.28;1.98;;;29.20;83.40;;;;;;5169995;27;20022;-46
2021/11/02 17:10:43;;;;;;;5.40;2.15;;;29.20;83.40;;;;;;5150275;27;20015;-49
2021/11/02 17:13:26;;;;;;;7.15;2.35;;;29.30;83.90;;;;;;5169627;27;20023;-50
2021/11/02 17:16:03;;;;;;;4.47;2.40;;;29.30;84.00;;;;;;5169168;27;20040;-52
2021/11/02 17:18:57;;;;;;;4.18;2.40;;;29.30;84.30;;;;;;5169088;27;20238;-51
2021/11/02 17:21:26;;;;;;;3.97;2.70;;;29.30;84.50;;;;;;5169313;27;20027;-49
2021/11/02 17:23:53;;;;;;;5.47;2.63;;;29.30;84.70;;;;;;5169822;27;20086;-50
2021/11/02 17:26:22;;;;;;;3.92;2.58;;;29.30;84.80;;;;;;5169201;27;20041;-47
2021/11/02 17:28:51;;;;;;;6.10;3.38;;;29.30;85.00;;;;;;5169259;27;20083;-49
2021/11/02 17:31:23;;;;;;;5.05;3.60;;;29.30;84.90;;;;;;5169414;27;20026;-50
2021/11/02 17:33:50;;;;;;;;;;;29.40;84.80;;;;;;5169361;27;20033;-46
2021/11/02 17:36:18;;;;;;;5.55;3.40;;;29.40;84.90;;;;;;5169274;27;19907;-46
2021/11/02 17:38:48;;;;;;;9.60;4.20;;;29.40;84.90;;;;;;5168963;27;20026;-50
2021/11/02 17:41:15;;;;;;;7.38;3.90;;;29.40;84.80;;;;;;5168884;27;20026;-48
2021/11/02 17:43:48;;;;;;;7.72;3.90;;;29.40;84.90;;;;;;5168698;27;20031;-49
2021/11/02 17:46:15;;;;;;;7.75;4.40;;;29.40;84.90;;;;;;5168835;27;20042;-52
2021/11/02 17:48:42;;;;;;;6.28;4.10;;;29.40;85.10;;;;;;5168606;27;20014;-49
2021/11/02 17:51:09;;;;;;;6.65;4.45;;;29.40;85.10;;;;;;5168809;27;20033;-45
2021/11/02 17:53:42;;;;;;;7.45;4.82;;;29.40;85.10;;;;;;5150577;27;20033;-49
2021/11/02 17:56:11;;;;;;;6.00;4.57;;;29.40;84.80;;;;;;5168206;27;20022;-50
2021/11/02 17:58:43;;;;;;;6.22;4.72;;;29.40;84.80;;;;;;5168479;27;20054;-49
2021/11/02 18:01:10;;;;;;;;;;;29.40;84.80;;;;;;5150237;27;20023;-47
2021/11/02 18:03:39;;;;;;;10.07;5.20;;;29.40;84.80;;;;;;5168311;27;19903;-54
2021/11/02 18:06:11;;;;;;;6.05;5.05;;;29.40;84.60;;;;;;5168323;27;20270;-50
2021/11/02 18:08:40;;;;;;;6.78;4.60;;;29.40;84.40;;;;;;5168178;27;20038;-47
2021/11/02 18:11:07;;;;;;;5.97;4.97;;;29.50;84.80;;;;;;5168381;27;20019;-51
2021/11/02 18:13:35;;;;;;;7.82;5.43;;;29.50;84.70;;;;;;5167951;27;20046;-49
2021/11/02 18:16:04;;;;;;;8.70;5.57;;;29.50;84.60;;;;;;5168082;27;20236;-51
2021/11/02 18:18:37;;;;;;;6.15;5.07;;;29.50;84.70;;;;;;5167989;27;20029;-51
2021/11/02 18:21:12;;;;;;;6.47;5.45;;;29.50;84.70;;;;;;5168011;27;20375;-45
2021/11/02 18:23:44;;;;;;;6.57;5.88;;;29.50;84.60;;;;;;5167998;27;20018;-49